Impacts METAR Board
IDs:

KHDN - Hayden/Yampa Valley, CO, US

Updated at: 0100 UTC 06 Dec 2019
Potential Impact None Slight Moderate High
Time 05/13Z 05/14Z 05/15Z 05/16Z 05/17Z 05/18Z 05/19Z 05/20Z 05/21Z 05/22Z 05/23Z 06/00Z 06/01Z
Temp29 30 31 32 33 35 35 34 35 35 34 33 33
Dewpt29 29 30 30 31 33 32 32 33 32 31 31 32
Altim29.93 29.94 29.97 30.00 30.04 30.06 30.07 30.08 30.09 30.12 30.16 30.20 30.21
VIS1.5 3 5 2.5 0.5 0.5 0.5 0.25 8 10 10 10 10
CIG15 12 8 13 4 4 6 2 14 18 19 17 9
CoverOVCOVCOVCOVCOVCOVCOVCOVCOVCOVCOVCOVCOVC
FltCatIFRMVFRIFRIFRLIFRLIFRLIFRLIFRMVFRMVFRMVFRMVFRIFR
WX-SN BR-SN BR-SN BR-SN BRSN FGSN FGSN FG-SN FG----------
WDir110100808000320280250290290280270
WSpd6 8 6 4 0 0 3 4 3 6 7 4 4
WGst-- -- -- -- -- -- -- -- -- -- -- -- --
Raw hourly METARs
KHDN 051256Z AUTO 11006KT 1 1/2SM -SN BR FEW007 OVC015 M02/M02 A2993 RMK AO2 SLP148 P0000 T10171017 FZRANO
KHDN 051352Z AUTO 10008KT 3SM -SN BR FEW007 OVC012 M01/M02 A2994 RMK AO2 SLP154 P0000 T10111017 FZRANO
KHDN 051456Z AUTO 08006KT 5SM -SN BR BKN008 BKN013 OVC021 M01/M01 A2997 RMK AO2 CIG 006V010 SLP161 P0000 60000 T10061011 53013 FZRANO
KHDN 051602Z AUTO 08004KT 2 1/2SM -SN BR SCT006 OVC013 00/M01 A3000 RMK AO2 P0000 FZRANO
KHDN 051656Z AUTO 00000KT 1/2SM SN FG BKN004 OVC010 01/M01 A3004 RMK AO2 SLP183 P0001 T00061006 FZRANO
KHDN 051756Z AUTO 00000KT 1/2SM SN FG OVC004 02/01 A3006 RMK AO2 CIG 003V007 SLP188 P0006 60007 T00170006 10017 21017 51026 FZRANO
KHDN 051856Z AUTO 32003KT 1/2SM SN FG OVC006 02/00 A3007 RMK AO2 CIG 003V008 SLP192 P0015 T00170000 FZRANO
KHDN 051956Z AUTO 28004KT 1/4SM -SN FG OVC002 01/00 A3008 RMK AO2 SLP197 P0010 T00110000 FZRANO
KHDN 052056Z AUTO 25003KT 8SM OVC014 02/01 A3009 RMK AO2 UPB26E55RAB40E49SNE26 SLP204 P0007 60032 T00170006 53009 FZRANO
KHDN 052156Z AUTO 29006KT 10SM OVC018 02/00 A3012 RMK AO2 RAB2059E10 SLP214 P0004 T00170000 FZRANO
KHDN 052256Z AUTO 29007KT 10SM SCT013 BKN019 OVC024 01/M01 A3016 RMK AO2 SLP228 T00111006 FZRANO
KHDN 052356Z AUTO 28004KT 10SM FEW011 BKN017 OVC024 01/M01 A3020 RMK AO2 SLP244 60036 T00061006 10022 20006 53029 FZRANO
KHDN 060056Z AUTO 27004KT 10SM OVC009 01/00 A3021 RMK AO2 SLP250 T00060000 FZRANO



Page loaded:  01:20 UTC  |   05:20 PM Pacific  |   06:20 PM Mountain  |   07:20 PM Central  |   08:20 PM Eastern

 

ADVISORIES

FORECASTS

FORECASTS

OBSERVATIONS

USER TOOLS

ABOUT US